Time;durP1;ratioP1;P1;durP2;ratioP2;P2;SDS_P1;SDS_P2;PMS_P1;PMS_P2;Temp;Humidity;BMP_temperature;BMP_pressure;BME280_temperature;BME280_humidity;BME280_pressure;Samples;Min_cycle;Max_cycle;Signal;HPM_P1;HPM_P2
2022/01/08 00:01:53;;;;;;;;;0.00;0.00;;;;;5.28;71.15;100667.84;5014718;28;46301;-76
2022/01/08 00:04:19;;;;;;;;;0.00;0.00;;;;;5.16;71.37;100663.41;5013342;28;45570;-73
2022/01/08 00:06:44;;;;;;;;;0.00;0.00;;;;;5.12;71.71;100673.03;5013227;28;45824;-76
2022/01/08 00:09:09;;;;;;;;;0.00;0.00;;;;;5.07;71.71;100674.75;5013621;28;45386;-73
2022/01/08 00:11:35;;;;;;;;;0.00;0.00;;;;;5.09;71.87;100685.25;5013198;28;45926;-74
2022/01/08 00:14:04;;;;;;;;;0.00;0.00;;;;;5.07;72.75;100695.72;5013994;28;45513;-75
2022/01/08 00:16:33;;;;;;;;;3.00;0.00;;;;;4.99;72.11;100692.19;5013841;28;45294;-73
2022/01/08 00:18:58;;;;;;;;;0.00;0.00;;;;;4.92;71.75;100695.63;5021464;28;45752;-75
2022/01/08 00:21:24;;;;;;;;;0.00;0.00;;;;;4.92;72.11;100713.97;5012757;28;45672;-74
2022/01/08 00:23:49;;;;;;;;;0.00;0.00;;;;;4.87;72.14;100713.94;5013916;27;45563;-73
2022/01/08 00:26:14;;;;;;;;;0.00;0.00;;;;;4.84;72.80;100718.28;5013939;28;45569;-75
2022/01/08 00:28:40;;;;;;;;;0.00;0.00;;;;;4.82;72.87;100709.56;5013301;28;45650;-73
2022/01/08 00:31:09;;;;;;;;;0.00;0.00;;;;;4.79;73.04;100713.03;5012242;28;46019;-73
2022/01/08 00:33:36;;;;;;;;;0.00;0.00;;;;;4.78;72.56;100711.28;5011968;27;45416;-75
2022/01/08 00:36:01;;;;;;;;;0.00;0.00;;;;;4.71;72.63;100712.97;5013053;28;45333;-75
2022/01/08 00:38:27;;;;;;;;;0.00;0.00;;;;;4.68;72.74;100717.34;5012738;28;45580;-74
2022/01/08 00:40:52;;;;;;;;;0.00;0.00;;;;;4.66;73.56;100721.66;5012993;28;45523;-74
2022/01/08 00:43:17;;;;;;;;;1.00;0.00;;;;;4.60;73.48;100727.72;5013817;27;45435;-74
2022/01/08 00:45:44;;;;;;;;;0.00;0.00;;;;;4.60;73.57;100735.59;5009453;27;45701;-75
2022/01/08 00:48:09;;;;;;;;;0.00;0.00;;;;;4.57;74.47;100746.03;5001294;28;45418;-74
2022/01/08 00:50:34;;;;;;;;;0.00;0.00;;;;;4.54;74.65;100746.91;5011085;27;45444;-74
2022/01/08 00:53:00;;;;;;;;;0.00;0.00;;;;;4.49;74.51;100747.75;5017336;28;45430;-73
2022/01/08 00:55:25;;;;;;;;;0.00;0.00;;;;;4.50;75.02;100760.84;5022921;28;45510;-75
2022/01/08 00:57:50;;;;;;;;;0.00;0.00;;;;;4.43;75.51;100759.03;5003941;28;45390;-74
2022/01/08 01:00:16;;;;;;;;;0.00;0.00;;;;;4.41;75.52;100764.25;5020733;28;45401;-73
2022/01/08 01:02:41;;;;;;;;;0.00;0.00;;;;;4.38;75.54;100765.97;5021079;28;45436;-73
2022/01/08 01:05:08;;;;;;;;;0.75;0.00;;;;;4.40;75.70;100770.38;5003185;28;45926;-73
2022/01/08 01:07:34;;;;;;;;;0.00;0.00;;;;;4.36;76.07;100770.34;5026666;28;45434;-76
2022/01/08 01:09:59;;;;;;;;;0.00;0.00;;;;;4.35;76.32;100771.19;4995891;27;45630;-78
2022/01/08 01:12:24;;;;;;;;;0.00;0.00;;;;;4.34;76.26;100778.16;5012860;28;45375;-77
2022/01/08 01:14:50;;;;;;;;;0.00;0.00;;;;;4.33;76.15;100789.50;5043906;28;45364;-78
2022/01/08 01:17:15;;;;;;;;;0.00;0.00;;;;;4.31;75.96;100775.50;5034704;28;45429;-77
2022/01/08 01:19:41;;;;;;;;;0.00;0.00;;;;;4.29;76.04;100779.84;5015630;28;45256;-78
2022/01/08 01:22:06;;;;;;;;;1.00;0.00;;;;;4.30;75.65;100779.00;5013579;27;45418;-78
2022/01/08 01:24:33;;;;;;;;;0.00;0.00;;;;;4.26;75.96;100782.44;5016703;27;45385;-77
2022/01/08 01:29:53;;;;;;;;;0.00;0.00;;;;;4.24;75.82;100774.56;5025552;27;45410;-76
2022/01/08 01:48:26;;;;;;;;;0.00;0.00;;;;;4.11;74.88;100770.09;5013353;28;45509;-77
2022/01/08 01:50:52;;;;;;;;;0.00;0.00;;;;;4.14;75.10;100777.09;5014214;28;46064;-77
2022/01/08 01:53:17;;;;;;;;;0.00;0.00;;;;;4.14;75.20;100777.09;5014183;28;45476;-76
2022/01/08 01:55:44;;;;;;;;;0.00;0.00;;;;;4.14;74.76;100779.72;5016422;28;45485;-78
2022/01/08 01:58:10;;;;;;;;;0.00;0.00;;;;;4.11;74.89;100788.41;5017372;28;45458;-77
2022/01/08 02:00:36;;;;;;;;;0.00;0.00;;;;;4.09;75.03;100783.16;5025325;28;46251;-77
2022/01/08 02:03:02;;;;;;;;;0.00;0.00;;;;;4.09;75.07;100771.81;5032053;28;45501;-76
2022/01/08 02:05:27;;;;;;;;;0.00;0.00;;;;;4.09;74.75;100780.53;5023329;28;45393;-76
2022/01/08 02:07:57;;;;;;;;;3.00;1.00;;;;;4.06;74.89;100769.19;5030048;28;45431;-76
2022/01/08 02:10:23;;;;;;;;;1.00;0.00;;;;;4.07;74.19;100777.03;5012100;28;45574;-77
2022/01/08 02:12:48;;;;;;;;;0.00;0.00;;;;;4.04;74.86;100771.78;5012700;28;45377;-77
2022/01/08 02:15:14;;;;;;;;;1.50;0.00;;;;;4.07;74.61;100768.31;5012519;28;45368;-77
2022/01/08 02:17:39;;;;;;;;;1.00;0.00;;;;;4.03;74.68;100766.53;5011088;28;45604;-77
2022/01/08 02:20:05;;;;;;;;;0.00;0.00;;;;;4.02;75.30;100783.94;5015336;28;46195;-77
2022/01/08 02:22:31;;;;;;;;;3.00;0.00;;;;;4.01;75.07;100786.53;5037072;27;45439;-79
2022/01/08 02:24:56;;;;;;;;;0.00;0.00;;;;;3.98;75.03;100784.81;5119271;27;45415;-76
2022/01/08 02:27:22;;;;;;;;;0.00;0.00;;;;;3.95;74.67;100786.47;5117697;27;45486;-77
2022/01/08 02:29:49;;;;;;;;;0.00;0.00;;;;;3.95;74.88;100786.47;5036108;27;45896;-77
2022/01/08 02:32:18;;;;;;;;;0.00;0.00;;;;;3.94;74.71;100793.47;5012616;28;45495;-77
2022/01/08 02:34:46;;;;;;;;;0.00;0.00;;;;;3.95;74.46;100799.56;5009997;28;45510;-77
2022/01/08 02:37:14;;;;;;;;;0.00;0.00;;;;;3.92;75.18;100798.69;5013301;28;45394;-76
2022/01/08 02:39:43;;;;;;;;;0.00;0.00;;;;;3.90;75.08;100799.50;5012737;28;45443;-77
2022/01/08 02:42:11;;;;;;;;;3.25;0.00;;;;;3.87;75.65;100796.88;5013491;28;45392;-76
2022/01/08 02:44:37;;;;;;;;;0.00;0.00;;;;;3.86;74.79;100797.75;5014099;28;45456;-77
2022/01/08 02:47:02;;;;;;;;;0.00;0.00;;;;;3.86;75.15;100801.22;5012735;28;45521;-77
2022/01/08 02:49:33;;;;;;;;;0.00;0.00;;;;;3.78;75.02;100791.53;5019375;28;46269;-77
2022/01/08 02:51:58;;;;;;;;;0.75;0.00;;;;;3.77;75.37;100792.41;5024868;28;45488;-76
2022/01/08 02:54:24;;;;;;;;;0.00;0.00;;;;;3.74;75.91;100788.88;5017409;28;45601;-78
2022/01/08 02:56:50;;;;;;;;;0.00;0.00;;;;;3.74;76.12;100801.09;5015398;28;45313;-77
2022/01/08 02:59:17;;;;;;;;;0.75;0.75;;;;;3.72;75.93;100819.38;5000580;28;47239;-77
2022/01/08 03:01:42;;;;;;;;;0.00;0.00;;;;;3.69;76.28;100816.72;5011781;28;45411;-77
2022/01/08 03:04:08;;;;;;;;;0.00;0.00;;;;;3.66;76.14;100805.34;5012730;28;45361;-76
2022/01/08 03:06:34;;;;;;;;;0.00;0.00;;;;;3.68;75.87;100816.72;5012339;28;45532;-77
2022/01/08 03:08:59;;;;;;;;;0.00;0.00;;;;;3.66;75.87;100811.47;5013323;28;45384;-76
2022/01/08 03:11:25;;;;;;;;;0.00;0.00;;;;;3.64;76.18;100805.31;5013793;28;45357;-76
2022/01/08 03:13:50;;;;;;;;;1.00;0.00;;;;;3.63;76.14;100808.81;5010920;28;45426;-76
2022/01/08 03:16:16;;;;;;;;;0.00;0.00;;;;;3.64;76.11;100797.47;5012907;28;45280;-77
2022/01/08 03:18:41;;;;;;;;;0.00;0.00;;;;;3.61;76.12;100797.44;4996642;27;46348;-77
2022/01/08 03:21:15;;;;;;;;;0.00;0.00;;;;;3.60;76.52;100803.56;5012662;27;45328;-77
2022/01/08 03:23:52;;;;;;;;;0.75;0.00;;;;;3.61;76.69;100800.06;5013253;28;45290;-77
2022/01/08 03:26:20;;;;;;;;;0.50;0.00;;;;;3.60;76.21;100795.72;5016856;28;45343;-77
2022/01/08 03:28:46;;;;;;;;;0.00;0.00;;;;;3.60;76.29;100797.44;5011812;27;45372;-77
2022/01/08 03:31:14;;;;;;;;;0.00;0.00;;;;;3.56;76.52;100789.53;5012105;28;45515;-77
2022/01/08 03:33:39;;;;;;;;;0.75;0.00;;;;;3.51;76.03;100787.75;5011662;27;45440;-78
2022/01/08 03:36:05;;;;;;;;;0.00;0.00;;;;;3.54;76.53;100787.78;5025115;27;45613;-77
2022/01/08 03:38:32;;;;;;;;;0.00;0.00;;;;;3.53;76.61;100792.13;5011140;28;45397;-78
2022/01/08 03:40:57;;;;;;;;;0.00;0.00;;;;;3.51;76.71;100786.00;5011145;28;45400;-77
2022/01/08 03:43:23;;;;;;;;;0.00;0.00;;;;;3.50;76.83;100788.59;4993047;28;45515;-76
2022/01/08 03:45:49;;;;;;;;;0.00;0.00;;;;;3.47;76.62;100786.81;5012556;28;45412;-76
2022/01/08 03:51:18;;;;;;;;;0.00;0.00;;;;;3.48;75.90;100793.81;4934800;28;45772;-77
2022/01/08 03:53:44;;;;;;;;;0.00;0.00;;;;;3.47;76.58;100797.28;4936921;28;45439;-77
2022/01/08 03:56:10;;;;;;;;;0.00;0.00;;;;;3.43;76.73;100799.84;4934192;28;45485;-77
2022/01/08 03:58:35;;;;;;;;;0.00;0.00;;;;;3.41;76.83;100791.09;4935994;28;45470;-77
2022/01/08 04:01:01;;;;;;;;;0.00;0.00;;;;;3.41;76.94;100793.72;4950378;28;45616;-77
2022/01/08 04:03:26;;;;;;;;;4.00;0.00;;;;;3.40;77.11;100794.56;4950685;28;45496;-77
2022/01/08 04:05:51;;;;;;;;;0.00;0.00;;;;;3.38;76.60;100790.19;4935657;28;45476;-74
2022/01/08 04:08:18;;;;;;;;;0.00;0.00;;;;;3.38;76.81;100784.09;4930097;28;45412;-75
2022/01/08 04:10:44;;;;;;;;;0.00;0.00;;;;;3.37;76.62;100788.47;4930472;28;45447;-75
2022/01/08 04:13:14;;;;;;;;;0.00;0.00;;;;;3.36;77.12;100793.66;4929957;28;45697;-75
2022/01/08 04:15:46;;;;;;;;;0.25;0.00;;;;;3.35;76.65;100803.22;4933902;28;45659;-74
2022/01/08 04:18:12;;;;;;;;;0.00;0.00;;;;;3.36;77.34;100806.72;4963902;28;45536;-74
2022/01/08 04:23:17;;;;;;;;;0.00;0.00;;;;;3.33;77.05;100786.66;5008164;27;45344;-75
2022/01/08 04:25:42;;;;;;;;;0.00;0.00;;;;;3.35;77.23;100794.50;5017788;28;45454;-73
2022/01/08 04:28:08;;;;;;;;;0.00;0.00;;;;;3.34;77.38;100793.66;5009217;28;46465;-74
2022/01/08 04:30:33;;;;;;;;;0.00;0.00;;;;;3.34;77.96;100793.66;5019451;28;45491;-74
2022/01/08 04:32:58;;;;;;;;;0.00;0.00;;;;;3.35;78.34;100784.94;5026477;28;45540;-74
2022/01/08 04:35:24;;;;;;;;;0.00;0.00;;;;;3.36;78.10;100793.66;5021846;28;45547;-74
2022/01/08 04:37:49;;;;;;;;;0.00;0.00;;;;;3.37;78.26;100785.84;5021892;28;45530;-73
2022/01/08 04:40:14;;;;;;;;;0.75;0.00;;;;;3.41;79.09;100793.72;5017284;28;45355;-74
2022/01/08 04:42:40;;;;;;;;;0.00;0.00;;;;;3.41;78.79;100783.25;4994670;28;45409;-74
2022/01/08 04:45:05;;;;;;;;;0.00;0.00;;;;;3.45;79.29;100785.94;5012944;28;45345;-74
2022/01/08 04:47:31;;;;;;;;;0.00;0.00;;;;;3.44;78.71;100776.34;5014455;28;45988;-73
2022/01/08 04:49:56;;;;;;;;;0.00;0.00;;;;;3.44;79.16;100781.56;5014054;28;45530;-74
2022/01/08 04:52:21;;;;;;;;;0.00;0.00;;;;;3.48;79.75;100782.50;5013954;28;45475;-74
2022/01/08 04:54:47;;;;;;;;;0.00;0.00;;;;;3.51;79.22;100796.47;5013404;28;45594;-74
2022/01/08 04:57:12;;;;;;;;;0.00;0.00;;;;;3.53;79.79;100809.56;4995560;28;45525;-74
2022/01/08 04:59:38;;;;;;;;;0.00;0.00;;;;;3.57;79.20;100813.97;5012758;28;45271;-74
2022/01/08 05:02:03;;;;;;;;;0.00;0.00;;;;;3.56;79.74;100809.59;5013435;28;45451;-76
2022/01/08 05:04:28;;;;;;;;;0.00;0.00;;;;;3.58;79.60;100817.44;5013684;28;45455;-75
2022/01/08 05:06:54;;;;;;;;;0.25;0.00;;;;;3.62;79.22;100829.72;5012263;28;45637;-75
2022/01/08 05:09:19;;;;;;;;;0.00;0.00;;;;;3.63;79.47;100827.13;5013476;28;45472;-75
2022/01/08 05:11:46;;;;;;;;;0.00;0.00;;;;;3.66;79.83;100831.47;5012121;28;45570;-74
2022/01/08 05:14:12;;;;;;;;;0.00;0.00;;;;;3.71;79.65;100835.91;5013590;28;45401;-74
2022/01/08 05:16:37;;;;;;;;;0.00;0.00;;;;;3.71;79.57;100815.00;5012100;28;45460;-74
2022/01/08 05:19:02;;;;;;;;;0.00;0.00;;;;;3.74;79.14;100816.78;5013263;28;45372;-74
2022/01/08 05:21:31;;;;;;;;;0.00;0.00;;;;;3.79;79.17;100807.25;5012751;28;45674;-75
2022/01/08 05:23:58;;;;;;;;;0.00;0.00;;;;;3.81;79.57;100809.88;5013262;27;45650;-74
2022/01/08 05:26:25;;;;;;;;;1.00;0.00;;;;;3.86;78.91;100808.22;5019428;28;46245;-75
2022/01/08 05:28:51;;;;;;;;;0.00;0.00;;;;;3.87;79.31;100809.94;5012272;28;45475;-74
2022/01/08 05:31:20;;;;;;;;;0.00;0.00;;;;;3.91;78.82;100816.97;5013202;28;45389;-74
2022/01/08 05:33:46;;;;;;;;;0.00;0.00;;;;;3.94;79.11;100810.91;5012909;28;45523;-74
2022/01/08 05:36:11;;;;;;;;;0.00;0.00;;;;;3.98;79.30;100813.56;5013238;27;45408;-74
2022/01/08 05:38:36;;;;;;;;;0.00;0.00;;;;;3.99;78.72;100797.00;5011959;28;45518;-74
2022/01/08 05:41:02;;;;;;;;;0.00;0.00;;;;;4.01;78.43;100787.44;5011593;28;45507;-74
2022/01/08 05:43:27;;;;;;;;;2.75;0.75;;;;;4.08;78.92;100794.50;5011947;28;45360;-74
2022/01/08 05:45:53;;;;;;;;;0.00;0.00;;;;;4.09;78.94;100790.13;5014474;28;45715;-73
2022/01/08 05:48:18;;;;;;;;;2.25;0.00;;;;;4.07;78.94;100770.94;5033002;28;45340;-74
2022/01/08 05:50:44;;;;;;;;;0.00;0.00;;;;;4.15;78.89;100782.34;5019896;28;45350;-74
2022/01/08 05:53:09;;;;;;;;;0.00;0.00;;;;;4.21;78.80;100781.53;5012793;28;45665;-73
2022/01/08 05:55:35;;;;;;;;;0.00;0.00;;;;;4.22;78.29;100775.41;5011985;28;46442;-74
2022/01/08 05:58:00;;;;;;;;;1.50;0.00;;;;;4.24;78.11;100778.94;5013213;28;45483;-74
2022/01/08 06:00:26;;;;;;;;;0.00;0.00;;;;;4.25;78.43;100771.09;5012791;28;45370;-73
2022/01/08 06:02:51;;;;;;;;;0.50;0.00;;;;;4.28;78.22;100780.69;5012752;28;45491;-74
2022/01/08 06:05:17;;;;;;;;;0.00;0.00;;;;;4.27;78.06;100773.75;4993587;28;46380;-74
2022/01/08 06:07:42;;;;;;;;;0.50;0.00;;;;;4.29;78.35;100784.22;5012797;28;45420;-74
2022/01/08 06:10:08;;;;;;;;;0.00;0.00;;;;;4.27;78.17;100778.97;5011253;28;45339;-74
2022/01/08 06:12:33;;;;;;;;;0.00;0.00;;;;;4.24;78.33;100789.41;5012102;28;45554;-74
2022/01/08 06:14:59;;;;;;;;;0.25;0.00;;;;;4.19;77.92;100792.00;5011891;28;46522;-75
2022/01/08 06:17:24;;;;;;;;;1.00;0.00;;;;;4.18;78.39;100792.84;5012151;28;45584;-74
2022/01/08 06:19:50;;;;;;;;;1.00;0.00;;;;;4.17;78.56;100795.44;5016018;28;45448;-74
2022/01/08 06:22:15;;;;;;;;;0.00;0.00;;;;;4.14;78.56;100787.56;5023810;27;45546;-74
2022/01/08 06:24:41;;;;;;;;;0.00;0.00;;;;;4.12;78.61;100771.00;5049426;27;45352;-75
2022/01/08 06:27:06;;;;;;;;;1.50;0.00;;;;;4.11;78.86;100772.69;5012121;28;45348;-74
2022/01/08 06:29:32;;;;;;;;;0.00;0.00;;;;;4.09;78.85;100764.84;5012570;28;45369;-74
2022/01/08 06:31:57;;;;;;;;;0.00;0.00;;;;;4.06;79.12;100764.81;5012796;28;45612;-74
2022/01/08 06:34:23;;;;;;;;;0.00;0.00;;;;;4.02;79.36;100751.69;5011250;28;45539;-74
2022/01/08 06:36:48;;;;;;;;;0.75;0.00;;;;;4.04;79.00;100761.31;5011709;28;45537;-73
2022/01/08 06:39:17;;;;;;;;;0.00;0.00;;;;;4.05;79.53;100770.94;4995036;28;45498;-73
2022/01/08 06:41:42;;;;;;;;;0.00;0.00;;;;;4.08;79.36;100767.44;5011181;28;45518;-74
2022/01/08 06:44:08;;;;;;;;;0.00;0.00;;;;;4.05;79.48;100770.94;5012006;28;46284;-74
2022/01/08 06:46:34;;;;;;;;;0.00;0.00;;;;;4.06;79.14;100756.97;5012074;28;45443;-75
2022/01/08 06:48:59;;;;;;;;;3.00;0.00;;;;;4.08;79.28;100755.25;5011547;28;45504;-74
2022/01/08 06:51:25;;;;;;;;;0.00;0.00;;;;;4.08;79.22;100742.19;5011335;27;45434;-75
2022/01/08 06:53:51;;;;;;;;;0.00;0.00;;;;;4.07;79.80;100748.25;5010426;28;46660;-76
2022/01/08 06:56:18;;;;;;;;;0.00;0.00;;;;;4.09;78.89;100745.66;4996295;28;45460;-76
2022/01/08 06:58:44;;;;;;;;;0.00;0.00;;;;;4.06;79.08;100743.00;5014001;28;45395;-76
2022/01/08 07:01:09;;;;;;;;;0.00;0.00;;;;;4.09;79.57;100754.38;5012770;28;45525;-75
2022/01/08 07:03:34;;;;;;;;;0.75;0.00;;;;;4.08;78.93;100747.41;5012014;28;45546;-74
2022/01/08 07:06:00;;;;;;;;;0.00;0.00;;;;;4.10;79.23;100755.28;5017177;28;45506;-74
2022/01/08 07:08:25;;;;;;;;;0.00;0.00;;;;;4.07;79.60;100748.25;5030039;28;45444;-74
2022/01/08 07:10:51;;;;;;;;;0.00;0.00;;;;;4.09;79.24;100736.06;5017668;27;45526;-77
2022/01/08 07:13:16;;;;;;;;;0.00;0.00;;;;;4.09;79.73;100732.59;5022916;27;46206;-77
2022/01/08 07:15:41;;;;;;;;;0.75;0.75;;;;;4.10;79.51;100734.34;5020473;27;45459;-76
2022/01/08 07:18:07;;;;;;;;;0.50;0.00;;;;;4.08;79.06;100731.72;5014252;27;45418;-78
2022/01/08 07:20:32;;;;;;;;;0.75;0.75;;;;;4.09;79.36;100722.97;5015514;27;45484;-78
2022/01/08 07:22:59;;;;;;;;;0.00;0.00;;;;;4.06;79.56;100728.19;5013540;27;46541;-79
2022/01/08 07:25:25;;;;;;;;;3.00;1.00;;;;;4.04;79.50;100724.69;5008928;28;45386;-78
2022/01/08 07:27:50;;;;;;;;;1.00;0.00;;;;;4.07;79.30;100724.72;5007624;28;45418;-79
2022/01/08 07:30:16;;;;;;;;;0.00;0.00;;;;;4.06;79.94;100712.50;5032479;28;45525;-79
2022/01/08 07:32:42;;;;;;;;;0.00;0.00;;;;;4.02;80.04;100707.22;5032623;28;46032;-78
2022/01/08 07:35:08;;;;;;;;;0.75;0.00;;;;;4.02;80.11;100705.47;5022293;28;45483;-79
2022/01/08 07:37:34;;;;;;;;;0.00;0.00;;;;;4.02;79.99;100695.00;5012676;28;45319;-78
2022/01/08 07:39:59;;;;;;;;;0.00;0.00;;;;;4.00;80.36;100691.50;5013470;28;45365;-78
2022/01/08 07:42:24;;;;;;;;;0.00;0.00;;;;;3.98;80.26;100687.13;5031647;28;45433;-78
2022/01/08 07:44:50;;;;;;;;;1.00;0.00;;;;;4.00;80.76;100695.88;5018436;27;45458;-79
2022/01/08 07:47:15;;;;;;;;;0.00;0.00;;;;;3.99;80.32;100694.13;4990405;28;45498;-77
2022/01/08 07:49:41;;;;;;;;;0.00;0.00;;;;;3.98;81.08;100693.25;5020399;28;45579;-76
2022/01/08 07:52:06;;;;;;;;;0.00;0.00;;;;;4.06;81.22;100703.78;5051035;27;45542;-78
2022/01/08 07:54:32;;;;;;;;;3.00;1.00;;;;;4.04;81.21;100698.53;5025753;27;45497;-76
2022/01/08 07:56:57;;;;;;;;;0.00;0.00;;;;;4.09;80.90;100694.19;5016757;28;45520;-76
2022/01/08 07:59:22;;;;;;;;;0.00;0.00;;;;;4.12;80.69;100700.34;5028241;28;45597;-76
2022/01/08 08:01:48;;;;;;;;;0.00;0.00;;;;;4.15;81.25;100695.13;5028559;28;45583;-75
2022/01/08 08:04:13;;;;;;;;;1.00;1.00;;;;;4.14;80.68;100683.78;4998660;28;45530;-76
2022/01/08 08:06:44;;;;;;;;;2.50;0.00;;;;;4.19;80.72;100681.19;5011134;28;45434;-75
2022/01/08 08:09:09;;;;;;;;;1.50;1.00;;;;;4.18;80.42;100679.47;5017738;28;45717;-76
2022/01/08 08:11:35;;;;;;;;;1.00;1.00;;;;;4.19;80.78;100681.19;5005624;28;46299;-75
2022/01/08 08:14:00;;;;;;;;;1.00;0.25;;;;;4.21;81.38;100671.63;5014619;28;45447;-76
2022/01/08 08:16:27;;;;;;;;;2.50;0.00;;;;;4.23;81.14;100667.28;5022641;28;45439;-76
2022/01/08 08:18:52;;;;;;;;;2.00;0.50;;;;;4.25;81.49;100665.53;5023831;28;45495;-76
2022/01/08 08:21:17;;;;;;;;;1.00;1.00;;;;;4.27;81.63;100655.97;5025018;28;45413;-76
2022/01/08 08:23:42;;;;;;;;;1.00;1.00;;;;;4.36;82.19;100658.66;5012806;27;45491;-76
2022/01/08 08:26:08;;;;;;;;;1.00;0.00;;;;;4.38;82.14;100645.59;5013354;28;45444;-77
2022/01/08 08:28:33;;;;;;;;;4.50;2.00;;;;;4.42;82.13;100652.59;5013565;28;45335;-77
2022/01/08 08:30:59;;;;;;;;;3.25;1.50;;;;;4.43;81.75;100650.00;5014218;28;45412;-76
2022/01/08 08:33:24;;;;;;;;;3.00;2.00;;;;;4.50;82.54;100645.66;5013608;28;45419;-75
2022/01/08 08:35:49;;;;;;;;;0.50;0.50;;;;;4.55;82.42;100641.31;5012780;28;45461;-77
2022/01/08 08:38:15;;;;;;;;;4.50;3.00;;;;;4.58;83.34;100632.59;5013987;28;45337;-75
2022/01/08 08:40:40;;;;;;;;;1.00;1.00;;;;;4.65;82.99;100637.00;5013126;28;45388;-75
2022/01/08 08:43:06;;;;;;;;;3.00;1.00;;;;;4.67;83.62;100627.41;5074606;27;45460;-77
2022/01/08 08:45:32;;;;;;;;;1.00;1.00;;;;;4.70;83.51;100619.56;5013628;28;45368;-76
2022/01/08 08:47:57;;;;;;;;;0.00;0.00;;;;;4.78;83.93;100630.09;5019019;28;45346;-76
2022/01/08 08:50:26;;;;;;;;;1.00;1.00;;;;;4.73;83.86;100611.72;5008251;28;46866;-78
2022/01/08 08:52:55;;;;;;;;;3.50;1.00;;;;;4.80;84.11;100618.75;5012539;28;45511;-77
2022/01/08 08:55:21;;;;;;;;;4.50;1.00;;;;;4.77;84.37;100597.78;5017596;28;45542;-77
2022/01/08 08:57:46;;;;;;;;;1.50;1.00;;;;;4.86;84.80;100603.91;5027011;28;45541;-76
2022/01/08 09:00:12;;;;;;;;;6.25;0.75;;;;;4.90;84.97;100608.31;5027508;28;46076;-79
2022/01/08 09:02:38;;;;;;;;;0.00;0.00;;;;;4.89;84.75;100607.44;5032316;28;45326;-77
2022/01/08 09:05:05;;;;;;;;;0.00;0.00;;;;;4.95;84.68;100617.06;5013246;28;45394;-77
2022/01/08 09:07:33;;;;;;;;;2.25;1.00;;;;;4.95;84.84;100610.09;5012972;28;45624;-78
2022/01/08 09:09:58;;;;;;;;;3.00;1.50;;;;;5.02;85.01;100607.50;5012879;28;47151;-76
2022/01/08 09:12:24;;;;;;;;;4.00;0.00;;;;;5.06;84.83;100593.53;5011301;28;45510;-76
2022/01/08 09:14:49;;;;;;;;;7.50;6.00;;;;;5.09;85.16;100594.41;5013792;28;45500;-77
2022/01/08 09:17:15;;;;;;;;;1.00;1.00;;;;;5.17;84.72;100589.19;5032105;28;45386;-76
2022/01/08 09:19:42;;;;;;;;;4.00;3.00;;;;;5.23;84.69;100590.94;5014666;28;48098;-77
2022/01/08 09:22:07;;;;;;;;;1.00;1.00;;;;;5.26;84.32;100577.84;5022793;27;45506;-77
2022/01/08 09:24:34;;;;;;;;;3.00;0.00;;;;;5.30;84.37;100575.25;5012897;28;45415;-76
2022/01/08 09:26:59;;;;;;;;;3.50;3.00;;;;;5.36;84.56;100569.13;5011489;28;45594;-79
2022/01/08 09:29:25;;;;;;;;;3.50;0.50;;;;;5.41;84.33;100559.53;5024487;27;46296;-77
2022/01/08 09:31:51;;;;;;;;;2.00;2.00;;;;;5.50;83.73;100569.16;5021610;28;45477;-77
2022/01/08 09:34:17;;;;;;;;;4.00;3.00;;;;;5.56;84.02;100568.25;5031671;27;45413;-81
2022/01/08 09:36:43;;;;;;;;;5.00;0.25;;;;;5.64;83.61;100574.41;5050134;27;45438;-76
2022/01/08 09:39:09;;;;;;;;;1.00;1.00;;;;;5.65;83.98;100563.91;5069165;27;45572;-76
2022/01/08 09:41:35;;;;;;;;;0.00;0.00;;;;;5.72;83.30;100572.63;5042493;27;45496;-77
2022/01/08 09:44:00;;;;;;;;;6.00;1.50;;;;;5.74;83.69;100560.41;5068479;27;45548;-77
2022/01/08 09:46:26;;;;;;;;;3.75;2.50;;;;;5.74;83.76;100556.91;5053307;27;45691;-77
2022/01/08 09:48:51;;;;;;;;;6.00;3.75;;;;;5.79;83.96;100550.78;5050532;27;45438;-79
2022/01/08 09:51:17;;;;;;;;;3.50;2.50;;;;;5.74;83.63;100539.44;5076297;27;45455;-76
2022/01/08 09:53:43;;;;;;;;;2.00;2.00;;;;;5.79;84.28;100540.28;5062172;27;45370;-76
2022/01/08 09:56:09;;;;;;;;;2.00;2.00;;;;;5.83;84.22;100542.03;5069656;27;45351;-76
2022/01/08 09:58:35;;;;;;;;;2.00;2.00;;;;;5.84;84.41;100522.78;5055963;27;46959;-76
2022/01/08 10:01:01;;;;;;;;;1.00;1.00;;;;;5.91;84.37;100528.06;5059131;27;45455;-76
2022/01/08 10:03:33;;;;;;;;;0.50;0.50;;;;;5.96;84.15;100518.41;5060158;27;45319;-75
2022/01/08 10:05:59;;;;;;;;;6.50;3.00;;;;;5.96;84.41;100511.41;5078968;27;45500;-76
2022/01/08 10:08:28;;;;;;;;;10.75;3.25;;;;;6.05;84.60;100508.78;5061188;27;46130;-75
2022/01/08 10:11:01;;;;;;;;;3.75;3.00;;;;;6.11;85.12;100497.41;5022487;28;45546;-77
2022/01/08 10:13:32;;;;;;;;;5.00;3.00;;;;;6.15;85.65;100480.78;5016626;28;45459;-83
2022/01/08 10:18:45;;;;;;;;;7.75;4.50;;;;;6.31;85.76;100475.47;5041503;27;45805;-77
2022/01/08 10:21:34;;;;;;;;;2.00;1.00;;;;;6.39;85.84;100479.81;5028570;28;45423;-76
2022/01/08 10:24:08;;;;;;;;;2.50;1.00;;;;;6.48;86.40;100484.13;5012788;27;45499;-77
2022/01/08 10:26:39;;;;;;;;;0.00;0.00;;;;;6.54;86.51;100476.25;5017285;28;45663;-76
2022/01/08 10:29:16;;;;;;;;;6.25;2.00;;;;;6.62;86.51;100477.94;5031211;27;46349;-77
2022/01/08 10:31:52;;;;;;;;;3.00;0.00;;;;;6.65;86.46;100470.06;5033068;28;45567;-76
2022/01/08 10:34:19;;;;;;;;;2.50;1.00;;;;;6.67;86.97;100457.81;5033728;28;45427;-76
2022/01/08 10:36:57;;;;;;;;;3.25;1.50;;;;;6.73;87.45;100455.13;5033332;28;45627;-75
2022/01/08 10:39:29;;;;;;;;;4.00;1.00;;;;;6.73;86.77;100444.63;5027260;28;46356;-77
2022/01/08 10:41:57;;;;;;;;;0.00;0.00;;;;;6.77;87.54;100451.59;5010979;28;45588;-76
2022/01/08 10:44:31;;;;;;;;;6.00;3.00;;;;;6.77;86.79;100448.97;5013498;28;45563;-77
2022/01/08 10:46:58;;;;;;;;;2.50;0.00;;;;;6.76;86.79;100437.59;5012181;28;45363;-77
2022/01/08 10:49:43;;;;;;;;;1.50;1.50;;;;;6.78;87.45;100437.56;5012477;28;46589;-79
2022/01/08 10:52:11;;;;;;;;;2.50;2.50;;;;;6.82;87.48;100420.91;5011460;28;45541;-79
2022/01/08 10:54:39;;;;;;;;;2.50;2.50;;;;;6.82;87.61;100415.66;5015358;28;45319;-79
2022/01/08 10:57:11;;;;;;;;;1.00;1.00;;;;;6.84;87.57;100408.63;5022390;28;45487;-88
2022/01/08 10:59:37;;;;;;;;;2.00;2.00;;;;;6.85;87.50;100399.88;5012440;28;45469;-79
2022/01/08 11:02:03;;;;;;;;;4.75;4.75;;;;;6.87;87.47;100390.22;5031658;27;45353;-80
2022/01/08 11:04:49;;;;;;;;;0.50;0.50;;;;;6.90;87.96;100387.56;5035792;27;45524;-79
2022/01/08 11:07:14;;;;;;;;;3.00;0.50;;;;;6.91;87.65;100376.19;5051730;27;45511;-79
2022/01/08 11:09:43;;;;;;;;;4.50;3.50;;;;;6.95;86.93;100369.13;5045089;27;45367;-79
2022/01/08 11:12:36;;;;;;;;;3.50;1.00;;;;;6.97;87.49;100355.97;5022083;28;45345;-79
2022/01/08 11:15:53;;;;;;;;;0.25;0.25;;;;;7.00;86.98;100348.06;5022832;27;45424;-77
2022/01/08 11:17:55;;;;;;;;;2.00;0.25;;;;;7.05;87.22;100349.78;5021723;27;45524;-76
2022/01/08 11:20:22;;;;;;;;;5.00;4.00;;;;;7.05;87.08;100339.25;5018818;28;46075;-75
2022/01/08 11:22:50;;;;;;;;;1.00;1.00;;;;;7.09;87.70;100345.34;5059007;27;45302;-78
2022/01/08 11:25:23;;;;;;;;;2.25;0.00;;;;;7.11;87.00;100338.34;5035614;27;45466;-77
2022/01/08 11:27:51;;;;;;;;;2.25;1.25;;;;;7.14;86.72;100322.53;5011265;28;45353;-75
2022/01/08 11:30:20;;;;;;;;;2.25;1.00;;;;;7.12;87.33;100305.91;5011015;28;45463;-76
2022/01/08 11:32:48;;;;;;;;;2.75;2.75;;;;;7.23;87.14;100317.19;5022669;28;45464;-76
2022/01/08 11:35:16;;;;;;;;;3.25;0.75;;;;;7.25;86.48;100309.28;5022689;28;45454;-76
2022/01/08 11:37:46;;;;;;;;;1.50;0.00;;;;;7.29;86.32;100306.59;5030168;28;45578;-78
2022/01/08 11:40:14;;;;;;;;;4.00;1.50;;;;;7.32;86.17;100289.03;5014347;28;46718;-78
2022/01/08 11:42:40;;;;;;;;;0.00;0.00;;;;;7.34;85.96;100276.78;5015810;28;45410;-77
2022/01/08 11:45:09;;;;;;;;;0.50;0.50;;;;;7.34;86.25;100267.13;5018699;28;45420;-76
2022/01/08 11:47:35;;;;;;;;;1.50;0.25;;;;;7.34;86.83;100250.47;5014987;28;45353;-77
2022/01/08 11:50:04;;;;;;;;;0.75;0.00;;;;;7.38;85.45;100252.16;5011197;28;45944;-87
2022/01/08 11:52:29;;;;;;;;;2.00;0.67;;;;;7.38;85.89;100246.91;4993705;28;45401;-76
2022/01/08 11:54:55;;;;;;;;;1.50;1.50;;;;;7.39;85.54;100233.75;5040580;27;45352;-79
2022/01/08 11:57:29;;;;;;;;;1.00;1.00;;;;;7.39;86.14;100219.72;5084839;27;45549;-77
2022/01/08 11:59:57;;;;;;;;;8.00;5.00;;;;;7.37;86.15;100213.63;5012928;28;46080;-77